createdAt,value
2023-03-16T00:03:30.848Z,5.76
2023-03-16T00:08:35.528Z,5.86
2023-03-16T00:13:42.886Z,5.85
2023-03-16T00:18:46.692Z,5.82
2023-03-16T00:23:50.488Z,5.96
2023-03-16T00:28:55.515Z,5.79
2023-03-16T00:33:59.272Z,5.81
2023-03-16T00:39:02.965Z,5.86
2023-03-16T00:44:09.673Z,5.87
2023-03-16T00:49:13.397Z,5.93
2023-03-16T00:54:18.897Z,5.94
2023-03-16T00:59:26.206Z,6.00
2023-03-16T01:04:30.242Z,6.04
2023-03-16T01:09:37.127Z,5.98
2023-03-16T01:14:42.995Z,6.01
2023-03-16T01:19:47.280Z,6.03
2023-03-16T01:24:51.181Z,5.98
2023-03-16T01:29:56.205Z,6.05
2023-03-16T01:35:00.288Z,6.07
2023-03-16T01:40:06.758Z,6.04
2023-03-16T01:45:44.888Z,6.02
2023-03-16T01:50:52.339Z,6.01
2023-03-16T01:55:56.304Z,6.04
2023-03-16T02:01:01.001Z,6.06
2023-03-16T02:06:12.118Z,6.06
2023-03-16T02:11:18.584Z,5.90
2023-03-16T02:16:23.915Z,5.97
2023-03-16T02:21:36.457Z,5.91
2023-03-16T02:26:47.650Z,5.84
2023-03-16T02:31:54.442Z,5.82
2023-03-16T02:36:59.501Z,5.86
2023-03-16T02:42:04.206Z,5.73
2023-03-16T02:47:16.367Z,5.73
2023-03-16T02:52:20.198Z,5.74
2023-03-16T02:57:24.073Z,5.81
2023-03-16T03:02:30.413Z,5.86
2023-03-16T03:07:34.211Z,5.89
2023-03-16T03:12:38.638Z,5.85
2023-03-16T03:17:45.048Z,5.79
2023-03-16T03:22:52.689Z,5.81
2023-03-16T03:27:56.539Z,5.88
2023-03-16T03:33:02.725Z,5.85
2023-03-16T03:38:08.107Z,5.79
2023-03-16T03:43:12.651Z,5.84
2023-03-16T03:48:19.025Z,5.73
2023-03-16T03:53:22.810Z,5.80
2023-03-16T03:58:28.542Z,5.76
2023-03-16T04:03:33.848Z,5.74
2023-03-16T04:08:37.941Z,5.79
2023-03-16T04:13:44.693Z,5.75
2023-03-16T04:18:49.909Z,5.64
2023-03-16T04:23:54.741Z,5.59
2023-03-16T04:28:59.921Z,5.58
2023-03-16T04:34:05.519Z,5.55
2023-03-16T04:39:10.394Z,5.61
2023-03-16T04:44:14.746Z,5.61
2023-03-16T04:49:20.391Z,5.60
2023-03-16T04:54:25.228Z,5.46
2023-03-16T04:59:29.286Z,5.41
2023-03-16T05:04:35.778Z,5.31
2023-03-16T05:09:40.230Z,5.35
2023-03-16T05:14:44.384Z,5.27
2023-03-16T05:19:50.402Z,5.25
2023-03-16T05:24:54.952Z,5.31
2023-03-16T05:29:58.965Z,5.17
2023-03-16T05:35:07.112Z,5.25
2023-03-16T05:40:17.234Z,5.28
2023-03-16T05:45:23.528Z,5.27
2023-03-16T05:50:29.885Z,5.27
2023-03-16T05:55:33.904Z,5.30
2023-03-16T06:00:39.438Z,5.32
2023-03-16T06:05:45.707Z,5.40
2023-03-16T06:10:50.794Z,5.30
2023-03-16T06:15:54.968Z,5.39
2023-03-16T06:21:00.230Z,5.35
2023-03-16T06:26:05.310Z,5.38
2023-03-16T06:31:11.068Z,5.37
2023-03-16T06:36:17.450Z,5.43
2023-03-16T06:41:22.382Z,5.43
2023-03-16T06:46:26.453Z,5.40
2023-03-16T06:51:32.429Z,5.38
2023-03-16T06:56:36.524Z,5.39
2023-03-16T07:01:40.844Z,5.53
2023-03-16T07:06:46.940Z,5.59
2023-03-16T07:11:51.439Z,5.63
2023-03-16T07:16:55.367Z,5.69
2023-03-16T07:22:02.748Z,5.68
2023-03-16T07:27:08.237Z,5.77
2023-03-16T07:32:13.302Z,5.88
2023-03-16T07:37:25.106Z,5.93
2023-03-16T07:42:30.428Z,6.07
2023-03-16T07:47:35.923Z,6.17
2023-03-16T07:52:41.471Z,6.14
2023-03-16T07:57:47.915Z,6.30
2023-03-16T08:02:54.090Z,6.41
2023-03-16T08:08:01.164Z,6.46
2023-03-16T08:13:05.940Z,6.54
2023-03-16T08:18:10.260Z,6.68
2023-03-16T08:23:15.593Z,6.72
2023-03-16T08:28:21.698Z,6.64
2023-03-16T08:33:26.297Z,6.73
2023-03-16T08:38:32.213Z,6.84
2023-03-16T08:43:37.685Z,6.93
2023-03-16T08:48:42.606Z,7.05
2023-03-16T08:53:47.872Z,7.07
2023-03-16T08:58:52.156Z,7.28
2023-03-16T09:03:55.947Z,7.35
2023-03-16T09:09:01.067Z,7.74
2023-03-16T09:14:04.901Z,8.00
2023-03-16T09:19:08.656Z,8.06
2023-03-16T09:24:14.339Z,8.18
2023-03-16T09:29:18.897Z,8.25
2023-03-16T09:39:29.254Z,8.81
2023-03-16T09:44:43.139Z,9.28
2023-03-16T09:49:48.840Z,9.36
2023-03-16T09:54:59.751Z,9.69
2023-03-16T10:00:17.265Z,10.00
2023-03-16T10:05:23.569Z,10.17
2023-03-16T10:10:44.548Z,10.42
2023-03-16T10:15:50.471Z,11.01
2023-03-16T10:20:55.518Z,11.32
2023-03-16T10:26:00.619Z,10.98
2023-03-16T10:31:04.621Z,11.23
2023-03-16T10:36:17.104Z,11.70
2023-03-16T10:41:28.384Z,12.41
2023-03-16T10:46:38.834Z,12.66
2023-03-16T10:51:44.262Z,12.52
2023-03-16T10:56:50.584Z,12.59
2023-03-16T11:01:55.290Z,12.81
2023-03-16T11:06:59.596Z,13.12
2023-03-16T11:12:17.296Z,13.21
2023-03-16T11:17:29.242Z,13.46
2023-03-16T11:22:34.100Z,13.25
2023-03-16T11:27:47.032Z,13.16
2023-03-16T11:32:53.418Z,13.41
2023-03-16T11:38:09.422Z,13.29
2023-03-16T11:43:28.557Z,13.19
2023-03-16T11:48:38.662Z,13.58
2023-03-16T11:53:50.813Z,14.03
2023-03-16T11:59:27.997Z,14.07
2023-03-16T12:04:46.600Z,14.52
2023-03-16T12:10:22.329Z,15.54
2023-03-16T12:15:36.071Z,16.40
2023-03-16T12:20:46.545Z,17.88
2023-03-16T12:25:52.337Z,18.62
2023-03-16T12:31:12.136Z,18.58
2023-03-16T12:36:36.848Z,18.60
2023-03-16T12:41:56.714Z,18.78
2023-03-16T12:47:09.487Z,19.64
2023-03-16T12:52:14.809Z,20.02
2023-03-16T12:57:19.220Z,19.53
2023-03-16T13:02:29.817Z,20.31
2023-03-16T13:07:33.613Z,20.64
2023-03-16T13:12:42.035Z,21.92
2023-03-16T13:17:49.396Z,20.76
2023-03-16T13:23:09.634Z,21.74
2023-03-16T13:28:15.125Z,21.35
2023-03-16T13:33:23.172Z,21.64
2023-03-16T13:38:29.529Z,21.44
2023-03-16T13:43:36.037Z,21.88
2023-03-16T13:48:41.838Z,22.42
2023-03-16T13:53:46.447Z,20.82
2023-03-16T13:58:52.783Z,20.24
2023-03-16T14:04:03.212Z,20.62
2023-03-16T14:09:09.343Z,21.55
2023-03-16T14:14:17.503Z,22.16
2023-03-16T14:19:28.255Z,22.56
2023-03-16T14:24:35.481Z,23.20
2023-03-16T14:29:43.590Z,23.42
2023-03-16T14:34:51.989Z,23.72
2023-03-16T14:40:02.735Z,23.27
2023-03-16T14:45:14.146Z,23.42
2023-03-16T14:50:25.184Z,22.39
2023-03-16T14:55:29.220Z,21.67
2023-03-16T15:00:42.644Z,21.75
2023-03-16T15:05:55.919Z,21.89
2023-03-16T15:11:01.880Z,21.42
2023-03-16T15:16:06.721Z,20.89
2023-03-16T15:21:14.280Z,21.13
2023-03-16T15:26:24.901Z,20.68
2023-03-16T15:31:29.095Z,20.35
2023-03-16T15:36:34.197Z,19.40
2023-03-16T15:41:47.293Z,19.90
2023-03-16T15:46:51.705Z,18.63
2023-03-16T15:51:56.792Z,18.77
2023-03-16T15:57:00.877Z,18.34
2023-03-16T16:02:04.924Z,17.57
2023-03-16T16:07:12.589Z,17.06
2023-03-16T16:12:17.843Z,17.12
2023-03-16T16:17:36.459Z,17.22
2023-03-16T16:22:46.486Z,17.11
2023-03-16T16:27:50.715Z,17.28
2023-03-16T16:32:56.949Z,17.29
2023-03-16T16:38:02.823Z,16.85
2023-03-16T16:43:07.702Z,16.76
2023-03-16T16:48:29.832Z,16.48
2023-03-16T16:53:34.940Z,16.46
2023-03-16T16:58:39.455Z,16.34
2023-03-16T17:03:43.257Z,16.33
2023-03-16T17:08:50.021Z,15.77
2023-03-16T17:13:55.480Z,15.66
2023-03-16T17:18:59.729Z,15.39
2023-03-16T17:24:04.998Z,15.34
2023-03-16T17:29:18.470Z,15.03
2023-03-16T17:34:24.194Z,14.92
2023-03-16T17:39:31.035Z,15.00
2023-03-16T17:44:39.107Z,14.88
2023-03-16T17:49:44.831Z,14.72
2023-03-16T17:54:52.087Z,14.52
2023-03-16T17:59:56.454Z,14.24
2023-03-16T18:05:00.652Z,14.01
2023-03-16T18:10:06.308Z,13.89
2023-03-16T18:15:16.598Z,13.91
2023-03-16T18:20:23.309Z,13.84
2023-03-16T18:25:39.055Z,13.78
2023-03-16T18:30:44.958Z,13.67
2023-03-16T18:35:49.538Z,13.45
2023-03-16T18:40:54.774Z,13.24
2023-03-16T18:45:58.728Z,13.21
2023-03-16T18:51:03.259Z,13.30
2023-03-16T18:56:08.518Z,13.27
2023-03-16T19:01:22.292Z,13.02
2023-03-16T19:06:30.149Z,12.88
2023-03-16T19:11:38.911Z,12.72
2023-03-16T19:16:42.847Z,12.56
2023-03-16T19:21:46.750Z,12.48
2023-03-16T19:26:52.245Z,12.27
2023-03-16T19:31:57.311Z,12.40
2023-03-16T19:37:01.071Z,12.06
2023-03-16T19:42:07.478Z,11.98
2023-03-16T19:47:26.010Z,12.03
2023-03-16T19:52:31.734Z,11.77
2023-03-16T19:57:37.025Z,11.79
2023-03-16T20:02:41.605Z,11.70
2023-03-16T20:07:45.758Z,11.59
2023-03-16T20:12:52.790Z,11.64
2023-03-16T20:17:57.204Z,11.34
2023-03-16T20:23:01.576Z,11.33
2023-03-16T20:28:15.480Z,11.19
2023-03-16T20:33:22.710Z,11.14
2023-03-16T20:38:27.119Z,11.08
2023-03-16T20:43:33.398Z,11.08
2023-03-16T20:48:37.182Z,10.95
2023-03-16T20:53:41.130Z,10.85
2023-03-16T20:58:47.948Z,10.88
2023-03-16T21:03:55.138Z,10.79
2023-03-16T21:09:00.945Z,10.78
2023-03-16T21:14:08.388Z,10.72
2023-03-16T21:19:16.900Z,10.66
2023-03-16T21:24:20.527Z,10.55
2023-03-16T21:29:25.759Z,10.49
2023-03-16T21:34:34.792Z,10.42
2023-03-16T21:39:38.743Z,10.57
2023-03-16T21:44:43.870Z,10.53
2023-03-16T21:49:47.621Z,10.51
2023-03-16T21:54:52.218Z,10.41
2023-03-16T21:59:57.296Z,10.26
2023-03-16T22:05:01.078Z,10.21
2023-03-16T22:10:14.961Z,10.18
2023-03-16T22:15:20.869Z,10.14
2023-03-16T22:20:27.606Z,10.12
2023-03-16T22:25:31.466Z,10.15
2023-03-16T22:30:36.843Z,9.99
2023-03-16T22:35:40.779Z,10.08
2023-03-16T22:40:44.682Z,9.99
2023-03-16T22:45:49.709Z,9.94
2023-03-16T22:50:54.270Z,9.84
2023-03-16T22:55:58.160Z,9.99
2023-03-16T23:01:15.828Z,9.91
2023-03-16T23:06:22.048Z,9.83
2023-03-16T23:11:28.659Z,9.86
2023-03-16T23:16:36.493Z,9.86
2023-03-16T23:21:40.288Z,9.87
2023-03-16T23:26:44.433Z,9.69
2023-03-16T23:31:50.091Z,9.71
2023-03-16T23:36:54.113Z,9.72
2023-03-16T23:41:57.937Z,9.70
2023-03-16T23:47:03.224Z,9.74
2023-03-16T23:52:07.413Z,9.70
2023-03-16T23:57:11.216Z,9.63
